sensor_id;sensor_type;location;lat;lon;timestamp;pressure;altitude;pressure_sealevel;temperature;humidity
11856;BME280;5987;53.140;8.904;2024-01-06T00:02:38;101166.50;;;0.02;100.00
11856;BME280;5987;53.140;8.904;2024-01-06T00:05:42;101167.34;;;0.01;100.00
11856;BME280;5987;53.140;8.904;2024-01-06T00:08:47;101168.22;;;0.03;100.00
11856;BME280;5987;53.140;8.904;2024-01-06T00:11:56;101169.91;;;-0.01;100.00
11856;BME280;5987;53.140;8.904;2024-01-06T00:15:00;101170.75;;;-0.02;100.00
11856;BME280;5987;53.140;8.904;2024-01-06T00:18:05;101183.69;;;0.03;100.00
11856;BME280;5987;53.140;8.904;2024-01-06T00:21:10;101186.22;;;-0.04;100.00
11856;BME280;5987;53.140;8.904;2024-01-06T00:24:13;101186.19;;;-0.07;100.00
11856;BME280;5987;53.140;8.904;2024-01-06T00:27:17;101197.47;;;0.00;100.00
11856;BME280;5987;53.140;8.904;2024-01-06T00:30:21;101200.78;;;-0.07;100.00
11856;BME280;5987;53.140;8.904;2024-01-06T00:33:27;101192.09;;;-0.15;100.00
11856;BME280;5987;53.140;8.904;2024-01-06T00:36:31;101204.16;;;-0.11;100.00
11856;BME280;5987;53.140;8.904;2024-01-06T00:39:35;101200.72;;;-0.13;100.00
11856;BME280;5987;53.140;8.904;2024-01-06T00:42:39;101211.03;;;-0.13;100.00
11856;BME280;5987;53.140;8.904;2024-01-06T00:45:42;101208.44;;;-0.15;100.00
11856;BME280;5987;53.140;8.904;2024-01-06T00:48:48;101212.69;;;-0.19;100.00
11856;BME280;5987;53.140;8.904;2024-01-06T00:51:52;101215.25;;;-0.19;100.00
11856;BME280;5987;53.140;8.904;2024-01-06T00:54:56;101218.72;;;-0.20;100.00
11856;BME280;5987;53.140;8.904;2024-01-06T00:58:00;101230.84;;;-0.14;100.00
11856;BME280;5987;53.140;8.904;2024-01-06T01:01:04;101228.16;;;-0.19;100.00
11856;BME280;5987;53.140;8.904;2024-01-06T01:04:09;101234.25;;;-0.15;100.00
11856;BME280;5987;53.140;8.904;2024-01-06T01:07:13;101235.88;;;-0.22;100.00
11856;BME280;5987;53.140;8.904;2024-01-06T01:10:17;101248.72;;;-0.25;100.00
11856;BME280;5987;53.140;8.904;2024-01-06T01:13:21;101247.00;;;-0.24;100.00
11856;BME280;5987;53.140;8.904;2024-01-06T01:16:25;101253.94;;;-0.22;100.00
11856;BME280;5987;53.140;8.904;2024-01-06T01:19:30;101265.06;;;-0.26;100.00
11856;BME280;5987;53.140;8.904;2024-01-06T01:22:34;101263.38;;;-0.25;100.00
11856;BME280;5987;53.140;8.904;2024-01-06T01:25:38;101258.97;;;-0.31;100.00
11856;BME280;5987;53.140;8.904;2024-01-06T01:28:42;101267.63;;;-0.26;100.00
11856;BME280;5987;53.140;8.904;2024-01-06T01:31:46;101265.84;;;-0.30;100.00
11856;BME280;5987;53.140;8.904;2024-01-06T01:34:52;101271.00;;;-0.31;100.00
11856;BME280;5987;53.140;8.904;2024-01-06T01:37:56;101279.63;;;-0.29;100.00
11856;BME280;5987;53.140;8.904;2024-01-06T01:40:59;101282.25;;;-0.26;100.00
11856;BME280;5987;53.140;8.904;2024-01-06T01:44:04;101292.56;;;-0.28;100.00
11856;BME280;5987;53.140;8.904;2024-01-06T01:47:08;101297.81;;;-0.22;100.00
11856;BME280;5987;53.140;8.904;2024-01-06T01:50:14;101309.75;;;-0.27;100.00
11856;BME280;5987;53.140;8.904;2024-01-06T01:53:19;101307.13;;;-0.30;100.00
11856;BME280;5987;53.140;8.904;2024-01-06T01:56:24;101317.41;;;-0.33;100.00
11856;BME280;5987;53.140;8.904;2024-01-06T01:59:28;101315.78;;;-0.28;100.00
11856;BME280;5987;53.140;8.904;2024-01-06T02:02:32;101319.97;;;-0.35;100.00
11856;BME280;5987;53.140;8.904;2024-01-06T02:05:37;101327.78;;;-0.28;100.00
11856;BME280;5987;53.140;8.904;2024-01-06T02:08:41;101329.44;;;-0.35;100.00
11856;BME280;5987;53.140;8.904;2024-01-06T02:11:45;101327.66;;;-0.39;100.00
11856;BME280;5987;53.140;8.904;2024-01-06T02:14:49;101332.81;;;-0.39;100.00
11856;BME280;5987;53.140;8.904;2024-01-06T02:17:52;101334.47;;;-0.41;100.00
11856;BME280;5987;53.140;8.904;2024-01-06T02:20:59;101343.06;;;-0.42;100.00
11856;BME280;5987;53.140;8.904;2024-01-06T02:24:06;101343.91;;;-0.43;100.00
11856;BME280;5987;53.140;8.904;2024-01-06T02:27:09;101350.78;;;-0.42;100.00
11856;BME280;5987;53.140;8.904;2024-01-06T02:30:13;101345.50;;;-0.52;100.00
11856;BME280;5987;53.140;8.904;2024-01-06T02:33:17;101356.00;;;-0.41;100.00
11856;BME280;5987;53.140;8.904;2024-01-06T02:36:22;101353.28;;;-0.48;100.00
11856;BME280;5987;53.140;8.904;2024-01-06T02:39:27;101361.03;;;-0.47;100.00
11856;BME280;5987;53.140;8.904;2024-01-06T02:42:31;101363.63;;;-0.45;100.00
11856;BME280;5987;53.140;8.904;2024-01-06T02:45:38;101367.69;;;-0.60;100.00
11856;BME280;5987;53.140;8.904;2024-01-06T02:48:42;101370.38;;;-0.54;100.00
11856;BME280;5987;53.140;8.904;2024-01-06T02:51:46;101377.25;;;-0.54;100.00
11856;BME280;5987;53.140;8.904;2024-01-06T02:54:51;101377.19;;;-0.59;100.00
11856;BME280;5987;53.140;8.904;2024-01-06T02:57:55;101392.72;;;-0.56;100.00
11856;BME280;5987;53.140;8.904;2024-01-06T03:00:59;101392.66;;;-0.59;100.00
11856;BME280;5987;53.140;8.904;2024-01-06T03:04:03;101384.00;;;-0.61;100.00
11856;BME280;5987;53.140;8.904;2024-01-06T03:07:07;101390.06;;;-0.59;100.00
11856;BME280;5987;53.140;8.904;2024-01-06T03:10:13;101390.06;;;-0.60;100.00
11856;BME280;5987;53.140;8.904;2024-01-06T03:13:16;101392.56;;;-0.63;100.00
11856;BME280;5987;53.140;8.904;2024-01-06T03:16:20;101395.13;;;-0.63;100.00
11856;BME280;5987;53.140;8.904;2024-01-06T03:19:24;101400.25;;;-0.65;100.00
11856;BME280;5987;53.140;8.904;2024-01-06T03:22:30;101405.41;;;-0.66;100.00
11856;BME280;5987;53.140;8.904;2024-01-06T03:25:35;101398.44;;;-0.71;100.00
11856;BME280;5987;53.140;8.904;2024-01-06T03:28:39;101408.03;;;-0.63;100.00
11856;BME280;5987;53.140;8.904;2024-01-06T03:31:43;101408.91;;;-0.63;100.00
11856;BME280;5987;53.140;8.904;2024-01-06T03:34:47;101409.75;;;-0.64;100.00
11856;BME280;5987;53.140;8.904;2024-01-06T03:37:51;101418.31;;;-0.65;100.00
11856;BME280;5987;53.140;8.904;2024-01-06T03:40:56;101426.91;;;-0.66;100.00
11856;BME280;5987;53.140;8.904;2024-01-06T03:44:00;101420.81;;;-0.70;100.00
11856;BME280;5987;53.140;8.904;2024-01-06T03:47:04;101420.81;;;-0.70;100.00
11856;BME280;5987;53.140;8.904;2024-01-06T03:50:09;101432.84;;;-0.70;100.00
11856;BME280;5987;53.140;8.904;2024-01-06T03:53:13;101437.28;;;-0.63;100.00
11856;BME280;5987;53.140;8.904;2024-01-06T03:56:18;101450.97;;;-0.67;100.00
11856;BME280;5987;53.140;8.904;2024-01-06T03:59:22;101452.72;;;-0.64;100.00
11856;BME280;5987;53.140;8.904;2024-01-06T04:02:25;101456.13;;;-0.67;100.00
11856;BME280;5987;53.140;8.904;2024-01-06T04:05:29;101456.94;;;-0.68;100.00
11856;BME280;5987;53.140;8.904;2024-01-06T04:08:33;101452.44;;;-0.78;100.00
11856;BME280;5987;53.140;8.904;2024-01-06T04:11:38;101458.59;;;-0.72;100.00
11856;BME280;5987;53.140;8.904;2024-01-06T04:14:43;101463.81;;;-0.68;100.00
11856;BME280;5987;53.140;8.904;2024-01-06T04:17:49;101469.84;;;-0.68;100.00
11856;BME280;5987;53.140;8.904;2024-01-06T04:20:55;101464.72;;;-0.65;100.00
11856;BME280;5987;53.140;8.904;2024-01-06T04:23:58;101468.09;;;-0.69;100.00
11856;BME280;5987;53.140;8.904;2024-01-06T04:27:04;101472.38;;;-0.70;100.00
11856;BME280;5987;53.140;8.904;2024-01-06T04:30:10;101466.19;;;-0.79;100.00
11856;BME280;5987;53.140;8.904;2024-01-06T04:33:14;101471.44;;;-0.73;100.00
11856;BME280;5987;53.140;8.904;2024-01-06T04:36:18;101474.00;;;-0.75;100.00
11856;BME280;5987;53.140;8.904;2024-01-06T04:39:22;101488.56;;;-0.78;100.00
11856;BME280;5987;53.140;8.904;2024-01-06T04:42:27;101476.53;;;-0.76;100.00
11856;BME280;5987;53.140;8.904;2024-01-06T04:45:31;101486.81;;;-0.79;100.00
11856;BME280;5987;53.140;8.904;2024-01-06T04:48:35;101498.88;;;-0.78;100.00
11856;BME280;5987;53.140;8.904;2024-01-06T04:51:39;101495.50;;;-0.74;100.00
11856;BME280;5987;53.140;8.904;2024-01-06T04:54:43;101495.56;;;-0.71;100.00
11856;BME280;5987;53.140;8.904;2024-01-06T04:57:50;101504.25;;;-0.67;100.00
11856;BME280;5987;53.140;8.904;2024-01-06T05:00:54;101504.06;;;-0.75;100.00
11856;BME280;5987;53.140;8.904;2024-01-06T05:03:58;101507.63;;;-0.70;100.00
11856;BME280;5987;53.140;8.904;2024-01-06T05:07:02;101517.84;;;-0.73;100.00
11856;BME280;5987;53.140;8.904;2024-01-06T05:10:07;101523.84;;;-0.76;100.00
11856;BME280;5987;53.140;8.904;2024-01-06T05:13:13;101527.16;;;-0.81;100.00
11856;BME280;5987;53.140;8.904;2024-01-06T05:16:16;101534.03;;;-0.80;100.00
11856;BME280;5987;53.140;8.904;2024-01-06T05:19:20;101543.53;;;-0.79;100.00
11856;BME280;5987;53.140;8.904;2024-01-06T05:22:25;101540.91;;;-0.81;100.00
11856;BME280;5987;53.140;8.904;2024-01-06T05:25:28;101552.97;;;-0.80;100.00
11856;BME280;5987;53.140;8.904;2024-01-06T05:28:33;101558.19;;;-0.77;100.00
11856;BME280;5987;53.140;8.904;2024-01-06T05:31:37;101560.66;;;-0.83;100.00
11856;BME280;5987;53.140;8.904;2024-01-06T05:34:41;101559.78;;;-0.82;100.00
11856;BME280;5987;53.140;8.904;2024-01-06T05:37:47;101560.75;;;-0.78;100.00
11856;BME280;5987;53.140;8.904;2024-01-06T05:40:51;101573.69;;;-0.75;100.00
11856;BME280;5987;53.140;8.904;2024-01-06T05:43:56;101577.00;;;-0.81;100.00
11856;BME280;5987;53.140;8.904;2024-01-06T05:47:00;101577.16;;;-0.73;100.00
11856;BME280;5987;53.140;8.904;2024-01-06T05:50:05;101588.34;;;-0.74;100.00
11856;BME280;5987;53.140;8.904;2024-01-06T05:53:11;101582.25;;;-0.76;100.00
11856;BME280;5987;53.140;8.904;2024-01-06T05:56:22;101591.63;;;-0.81;100.00
11856;BME280;5987;53.140;8.904;2024-01-06T05:59:32;101593.38;;;-0.79;100.00
11856;BME280;5987;53.140;8.904;2024-01-06T06:02:36;101597.56;;;-0.84;100.00
11856;BME280;5987;53.140;8.904;2024-01-06T06:05:40;101608.78;;;-0.82;100.00
11856;BME280;5987;53.140;8.904;2024-01-06T06:08:44;101607.81;;;-0.87;100.00
11856;BME280;5987;53.140;8.904;2024-01-06T06:11:48;101619.13;;;-0.80;100.00
11856;BME280;5987;53.140;8.904;2024-01-06T06:14:53;101624.19;;;-0.85;100.00
11856;BME280;5987;53.140;8.904;2024-01-06T06:17:58;101632.72;;;-0.88;100.00
11856;BME280;5987;53.140;8.904;2024-01-06T06:21:04;101636.25;;;-0.84;100.00
11856;BME280;5987;53.140;8.904;2024-01-06T06:24:08;101637.13;;;-0.82;100.00
11856;BME280;5987;53.140;8.904;2024-01-06T06:27:11;101647.34;;;-0.87;100.00
11856;BME280;5987;53.140;8.904;2024-01-06T06:30:17;101647.22;;;-0.93;100.00
11856;BME280;5987;53.140;8.904;2024-01-06T06:33:21;101653.34;;;-0.88;100.00
11856;BME280;5987;53.140;8.904;2024-01-06T06:36:25;101657.66;;;-0.87;100.00
11856;BME280;5987;53.140;8.904;2024-01-06T06:39:29;101666.97;;;-0.92;100.00
11856;BME280;5987;53.140;8.904;2024-01-06T06:42:34;101670.25;;;-0.99;100.00
11856;BME280;5987;53.140;8.904;2024-01-06T06:45:39;101678.06;;;-0.96;100.00
11856;BME280;5987;53.140;8.904;2024-01-06T06:48:43;101682.09;;;-1.06;100.00
11856;BME280;5987;53.140;8.904;2024-01-06T06:51:48;101689.91;;;-1.04;100.00
11856;BME280;5987;53.140;8.904;2024-01-06T06:54:52;101685.44;;;-1.10;100.00
11856;BME280;5987;53.140;8.904;2024-01-06T06:57:56;101694.09;;;-1.08;100.00
11856;BME280;5987;53.140;8.904;2024-01-06T07:01:02;101699.25;;;-1.08;100.00
11856;BME280;5987;53.140;8.904;2024-01-06T07:04:08;101692.25;;;-1.13;100.00
11856;BME280;5987;53.140;8.904;2024-01-06T07:07:12;101697.47;;;-1.10;100.00
11856;BME280;5987;53.140;8.904;2024-01-06T07:10:16;101703.41;;;-1.13;100.00
11856;BME280;5987;53.140;8.904;2024-01-06T07:13:19;101707.78;;;-1.10;100.00
11856;BME280;5987;53.140;8.904;2024-01-06T07:16:25;101711.94;;;-1.15;100.00
11856;BME280;5987;53.140;8.904;2024-01-06T07:19:29;101708.50;;;-1.16;100.00
11856;BME280;5987;53.140;8.904;2024-01-06T07:22:33;101723.91;;;-1.17;100.00
11856;BME280;5987;53.140;8.904;2024-01-06T07:25:37;101728.25;;;-1.16;100.00
11856;BME280;5987;53.140;8.904;2024-01-06T07:28:41;101724.00;;;-1.14;100.00
11856;BME280;5987;53.140;8.904;2024-01-06T07:31:46;101730.06;;;-1.12;100.00
11856;BME280;5987;53.140;8.904;2024-01-06T07:34:51;101742.78;;;-1.18;100.00
11856;BME280;5987;53.140;8.904;2024-01-06T07:37:55;101743.63;;;-1.19;100.00
11856;BME280;5987;53.140;8.904;2024-01-06T07:40:59;101753.09;;;-1.18;100.00
11856;BME280;5987;53.140;8.904;2024-01-06T07:44:03;101750.59;;;-1.15;100.00
11856;BME280;5987;53.140;8.904;2024-01-06T07:47:08;101762.56;;;-1.17;100.00
11856;BME280;5987;53.140;8.904;2024-01-06T07:50:12;101758.31;;;-1.15;100.00
11856;BME280;5987;53.140;8.904;2024-01-06T07:53:16;101757.41;;;-1.17;100.00
11856;BME280;5987;53.140;8.904;2024-01-06T07:56:20;101765.03;;;-1.22;100.00
11856;BME280;5987;53.140;8.904;2024-01-06T07:59:24;101769.34;;;-1.21;100.00
11856;BME280;5987;53.140;8.904;2024-01-06T08:02:29;101764.88;;;-1.27;100.00
11856;BME280;5987;53.140;8.904;2024-01-06T08:05:33;101769.28;;;-1.23;100.00
11856;BME280;5987;53.140;8.904;2024-01-06T08:08:37;101776.28;;;-1.18;100.00
11856;BME280;5987;53.140;8.904;2024-01-06T08:11:41;101779.59;;;-1.23;100.00
11856;BME280;5987;53.140;8.904;2024-01-06T08:14:45;101788.25;;;-1.21;100.00
11856;BME280;5987;53.140;8.904;2024-01-06T08:17:50;101796.31;;;-1.08;100.00
11856;BME280;5987;53.140;8.904;2024-01-06T08:20:55;101804.06;;;-1.08;100.00
11856;BME280;5987;53.140;8.904;2024-01-06T08:23:59;101810.78;;;-1.13;100.00
11856;BME280;5987;53.140;8.904;2024-01-06T08:27:04;101814.19;;;-1.14;100.00
11856;BME280;5987;53.140;8.904;2024-01-06T08:30:09;101826.59;;;-1.01;100.00
11856;BME280;5987;53.140;8.904;2024-01-06T08:33:14;101826.41;;;-1.07;100.00
11856;BME280;5987;53.140;8.904;2024-01-06T08:36:20;101828.72;;;-1.18;100.00
11856;BME280;5987;53.140;8.904;2024-01-06T08:39:24;101827.09;;;-1.13;100.00
11856;BME280;5987;53.140;8.904;2024-01-06T08:42:28;101828.66;;;-1.19;100.00
11856;BME280;5987;53.140;8.904;2024-01-06T08:45:32;101821.72;;;-1.22;100.00
11856;BME280;5987;53.140;8.904;2024-01-06T08:48:37;101825.19;;;-1.20;100.00
11856;BME280;5987;53.140;8.904;2024-01-06T08:51:41;101839.06;;;-1.16;100.00
11856;BME280;5987;53.140;8.904;2024-01-06T08:54:45;101835.13;;;-1.02;100.00
11856;BME280;5987;53.140;8.904;2024-01-06T08:57:49;101850.22;;;-1.16;100.00
11856;BME280;5987;53.140;8.904;2024-01-06T09:00:53;101846.84;;;-1.13;100.00
11856;BME280;5987;53.140;8.904;2024-01-06T09:03:58;101844.16;;;-1.18;100.00
11856;BME280;5987;53.140;8.904;2024-01-06T09:07:02;101853.41;;;-1.25;100.00
11856;BME280;5987;53.140;8.904;2024-01-06T09:10:08;101861.63;;;-1.08;100.00
11856;BME280;5987;53.140;8.904;2024-01-06T09:13:12;101852.97;;;-1.10;100.00
11856;BME280;5987;53.140;8.904;2024-01-06T09:16:16;101860.88;;;-1.04;100.00
11856;BME280;5987;53.140;8.904;2024-01-06T09:19:22;101858.22;;;-1.07;100.00
11856;BME280;5987;53.140;8.904;2024-01-06T09:22:27;101858.03;;;-1.13;100.00
11856;BME280;5987;53.140;8.904;2024-01-06T09:25:31;101857.94;;;-1.16;100.00
11856;BME280;5987;53.140;8.904;2024-01-06T09:28:34;101859.00;;;-1.09;100.00
11856;BME280;5987;53.140;8.904;2024-01-06T09:31:38;101866.50;;;-1.17;100.00
11856;BME280;5987;53.140;8.904;2024-01-06T09:34:44;101871.06;;;-1.08;100.00
11856;BME280;5987;53.140;8.904;2024-01-06T09:37:48;101874.19;;;-1.18;100.00
11856;BME280;5987;53.140;8.904;2024-01-06T09:40:53;101872.47;;;-1.19;100.00
11856;BME280;5987;53.140;8.904;2024-01-06T09:43:59;101870.91;;;-1.13;100.00
11856;BME280;5987;53.140;8.904;2024-01-06T09:47:05;101878.31;;;-1.25;100.00
11856;BME280;5987;53.140;8.904;2024-01-06T09:50:13;101868.81;;;-1.28;100.00
11856;BME280;5987;53.140;8.904;2024-01-06T09:53:17;101871.63;;;-1.18;100.00
11856;BME280;5987;53.140;8.904;2024-01-06T09:56:22;101874.19;;;-1.18;100.00
11856;BME280;5987;53.140;8.904;2024-01-06T09:59:28;101867.19;;;-1.23;100.00
11856;BME280;5987;53.140;8.904;2024-01-06T10:02:37;101872.72;;;-1.10;100.00
11856;BME280;5987;53.140;8.904;2024-01-06T10:05:43;101873.81;;;-1.02;100.00
11856;BME280;5987;53.140;8.904;2024-01-06T10:08:49;101869.31;;;-1.09;100.00
11856;BME280;5987;53.140;8.904;2024-01-06T10:11:55;101874.50;;;-1.08;100.00
11856;BME280;5987;53.140;8.904;2024-01-06T10:15:03;101868.19;;;-1.19;100.00
11856;BME280;5987;53.140;8.904;2024-01-06T10:18:07;101860.22;;;-1.27;100.00
11856;BME280;5987;53.140;8.904;2024-01-06T10:21:13;101864.75;;;-1.19;100.00
11856;BME280;5987;53.140;8.904;2024-01-06T10:24:20;101867.31;;;-1.19;100.00
11856;BME280;5987;53.140;8.904;2024-01-06T10:27:24;101859.75;;;-1.13;100.00
11856;BME280;5987;53.140;8.904;2024-01-06T10:30:27;101863.66;;;-1.28;100.00
11856;BME280;5987;53.140;8.904;2024-01-06T10:33:33;101856.25;;;-1.15;100.00
11856;BME280;5987;53.140;8.904;2024-01-06T10:36:38;101862.16;;;-1.19;100.00
11856;BME280;5987;53.140;8.904;2024-01-06T10:39:42;101853.63;;;-1.17;100.00
11856;BME280;5987;53.140;8.904;2024-01-06T10:42:47;101853.66;;;-1.15;100.00
11856;BME280;5987;53.140;8.904;2024-01-06T10:45:51;101838.00;;;-1.23;100.00
11856;BME280;5987;53.140;8.904;2024-01-06T10:48:58;101846.03;;;-1.12;100.00
11856;BME280;5987;53.140;8.904;2024-01-06T10:52:05;101828.56;;;-1.23;100.00
11856;BME280;5987;53.140;8.904;2024-01-06T10:55:09;101832.06;;;-1.21;100.00
11856;BME280;5987;53.140;8.904;2024-01-06T10:58:16;101822.66;;;-1.18;100.00
11856;BME280;5987;53.140;8.904;2024-01-06T11:01:23;101822.63;;;-1.20;100.00
11856;BME280;5987;53.140;8.904;2024-01-06T11:04:31;101806.97;;;-1.28;100.00
11856;BME280;5987;53.140;8.904;2024-01-06T11:07:38;101813.28;;;-1.16;100.00
11856;BME280;5987;53.140;8.904;2024-01-06T11:10:44;101809.97;;;-1.12;100.00
11856;BME280;5987;53.140;8.904;2024-01-06T11:13:49;101806.63;;;-1.08;100.00
11856;BME280;5987;53.140;8.904;2024-01-06T11:16:54;101803.94;;;-1.11;100.00
11856;BME280;5987;53.140;8.904;2024-01-06T11:20:06;101794.47;;;-1.14;100.00
11856;BME280;5987;53.140;8.904;2024-01-06T11:23:29;101788.31;;;-1.19;100.00
11856;BME280;5987;53.140;8.904;2024-01-06T11:26:39;101790.31;;;-1.07;100.00
11856;BME280;5987;53.140;8.904;2024-01-06T11:29:43;101780.66;;;-1.16;100.00
11856;BME280;5987;53.140;8.904;2024-01-06T11:32:47;101778.88;;;-1.17;100.00
11856;BME280;5987;53.140;8.904;2024-01-06T11:35:52;101784.31;;;-1.08;100.00
11856;BME280;5987;53.140;8.904;2024-01-06T11:39:00;101772.81;;;-1.21;100.00
11856;BME280;5987;53.140;8.904;2024-01-06T11:42:04;101764.13;;;-1.23;100.00
11856;BME280;5987;53.140;8.904;2024-01-06T11:45:13;101762.47;;;-1.22;100.00
11856;BME280;5987;53.140;8.904;2024-01-06T11:48:20;101765.44;;;-1.07;100.00
11856;BME280;5987;53.140;8.904;2024-01-06T11:51:27;101760.97;;;-1.14;100.00
11856;BME280;5987;53.140;8.904;2024-01-06T11:54:33;101751.03;;;-1.32;100.00
11856;BME280;5987;53.140;8.904;2024-01-06T11:57:38;101755.66;;;-1.18;100.00
11856;BME280;5987;53.140;8.904;2024-01-06T12:00:42;101756.25;;;-1.29;100.00
11856;BME280;5987;53.140;8.904;2024-01-06T12:03:54;101752.88;;;-1.28;100.00
11856;BME280;5987;53.140;8.904;2024-01-06T12:07:06;101749.44;;;-1.27;100.00
11856;BME280;5987;53.140;8.904;2024-01-06T12:10:11;101757.50;;;-1.14;100.00
11856;BME280;5987;53.140;8.904;2024-01-06T12:13:16;101749.56;;;-1.22;100.00
11856;BME280;5987;53.140;8.904;2024-01-06T12:16:20;101748.88;;;-1.16;100.00
11856;BME280;5987;53.140;8.904;2024-01-06T12:19:24;101743.53;;;-1.23;100.00
11856;BME280;5987;53.140;8.904;2024-01-06T12:22:28;101740.06;;;-1.25;100.00
11856;BME280;5987;53.140;8.904;2024-01-06T12:25:35;101743.84;;;-1.10;100.00
11856;BME280;5987;53.140;8.904;2024-01-06T12:28:44;101733.94;;;-1.28;100.00
11856;BME280;5987;53.140;8.904;2024-01-06T12:31:48;101726.16;;;-1.30;100.00
11856;BME280;5987;53.140;8.904;2024-01-06T12:34:53;101725.28;;;-1.32;100.00
11856;BME280;5987;53.140;8.904;2024-01-06T12:37:58;101727.13;;;-1.26;100.00
11856;BME280;5987;53.140;8.904;2024-01-06T12:41:05;101721.09;;;-1.27;100.00
11856;BME280;5987;53.140;8.904;2024-01-06T12:44:09;101721.06;;;-1.28;100.00
11856;BME280;5987;53.140;8.904;2024-01-06T12:47:13;101720.88;;;-1.36;100.00
11856;BME280;5987;53.140;8.904;2024-01-06T12:50:18;101715.72;;;-1.36;100.00
11856;BME280;5987;53.140;8.904;2024-01-06T12:53:22;101719.22;;;-1.32;100.00
11856;BME280;5987;53.140;8.904;2024-01-06T12:56:28;101702.81;;;-1.38;100.00
11856;BME280;5987;53.140;8.904;2024-01-06T12:59:32;101706.13;;;-1.42;100.00
11856;BME280;5987;53.140;8.904;2024-01-06T13:02:37;101706.91;;;-1.44;100.00
11856;BME280;5987;53.140;8.904;2024-01-06T13:05:41;101710.50;;;-1.39;100.00
11856;BME280;5987;53.140;8.904;2024-01-06T13:08:45;101701.75;;;-1.44;100.00
11856;BME280;5987;53.140;8.904;2024-01-06T13:11:52;101705.19;;;-1.44;100.00
11856;BME280;5987;53.140;8.904;2024-01-06T13:14:58;101699.22;;;-1.43;100.00
11856;BME280;5987;53.140;8.904;2024-01-06T13:18:06;101700.78;;;-1.48;100.00
11856;BME280;5987;53.140;8.904;2024-01-06T13:21:10;101694.13;;;-1.40;100.00
11856;BME280;5987;53.140;8.904;2024-01-06T13:24:14;101695.78;;;-1.43;100.00
11856;BME280;5987;53.140;8.904;2024-01-06T13:27:21;101688.94;;;-1.41;100.00
11856;BME280;5987;53.140;8.904;2024-01-06T13:30:25;101692.56;;;-1.34;100.00
11856;BME280;5987;53.140;8.904;2024-01-06T13:33:29;101688.28;;;-1.34;100.00
11856;BME280;5987;53.140;8.904;2024-01-06T13:36:33;101689.28;;;-1.29;100.00
11856;BME280;5987;53.140;8.904;2024-01-06T13:39:38;101675.56;;;-1.28;100.00
11856;BME280;5987;53.140;8.904;2024-01-06T13:42:44;101666.16;;;-1.26;100.00
11856;BME280;5987;53.140;8.904;2024-01-06T13:45:48;101673.13;;;-1.22;100.00
11856;BME280;5987;53.140;8.904;2024-01-06T13:48:53;101658.63;;;-1.18;100.00
11856;BME280;5987;53.140;8.904;2024-01-06T13:51:58;101647.03;;;-1.35;100.00
11856;BME280;5987;53.140;8.904;2024-01-06T13:55:02;101640.25;;;-1.32;100.00
11856;BME280;5987;53.140;8.904;2024-01-06T13:58:08;101630.91;;;-1.27;100.00
11856;BME280;5987;53.140;8.904;2024-01-06T14:01:13;101618.72;;;-1.34;100.00
11856;BME280;5987;53.140;8.904;2024-01-06T14:04:17;101609.41;;;-1.29;100.00
11856;BME280;5987;53.140;8.904;2024-01-06T14:07:22;101610.19;;;-1.31;100.00
11856;BME280;5987;53.140;8.904;2024-01-06T14:10:27;101597.38;;;-1.28;100.00
11856;BME280;5987;53.140;8.904;2024-01-06T14:13:33;101599.06;;;-1.30;100.00
11856;BME280;5987;53.140;8.904;2024-01-06T14:16:37;101584.66;;;-1.24;100.00
11856;BME280;5987;53.140;8.904;2024-01-06T14:19:42;101578.59;;;-1.24;100.00
11856;BME280;5987;53.140;8.904;2024-01-06T14:22:49;101575.09;;;-1.28;100.00
11856;BME280;5987;53.140;8.904;2024-01-06T14:25:53;101567.38;;;-1.28;100.00
11856;BME280;5987;53.140;8.904;2024-01-06T14:28:59;101568.44;;;-1.19;100.00
11856;BME280;5987;53.140;8.904;2024-01-06T14:32:03;101567.44;;;-1.25;100.00
11856;BME280;5987;53.140;8.904;2024-01-06T14:35:09;101563.88;;;-1.30;100.00
11856;BME280;5987;53.140;8.904;2024-01-06T14:38:15;101571.75;;;-1.24;100.00
11856;BME280;5987;53.140;8.904;2024-01-06T14:41:18;101572.41;;;-1.31;100.00
11856;BME280;5987;53.140;8.904;2024-01-06T14:44:24;101561.63;;;-1.16;100.00
11856;BME280;5987;53.140;8.904;2024-01-06T14:47:29;101568.03;;;-0.98;100.00
11856;BME280;5987;53.140;8.904;2024-01-06T14:50:35;101566.75;;;-1.17;100.00
11856;BME280;5987;53.140;8.904;2024-01-06T14:53:38;101563.94;;;-1.27;100.00
11856;BME280;5987;53.140;8.904;2024-01-06T14:56:44;101558.84;;;-1.25;100.00
11856;BME280;5987;53.140;8.904;2024-01-06T14:59:50;101569.09;;;-1.27;100.00
11856;BME280;5987;53.140;8.904;2024-01-06T15:02:54;101564.81;;;-1.26;100.00
11856;BME280;5987;53.140;8.904;2024-01-06T15:05:58;101564.06;;;-1.22;100.00
11856;BME280;5987;53.140;8.904;2024-01-06T15:09:03;101562.25;;;-1.26;100.00
11856;BME280;5987;53.140;8.904;2024-01-06T15:12:09;101568.25;;;-1.26;100.00
11856;BME280;5987;53.140;8.904;2024-01-06T15:15:15;101568.16;;;-1.30;100.00
11856;BME280;5987;53.140;8.904;2024-01-06T15:18:19;101573.41;;;-1.26;100.00
11856;BME280;5987;53.140;8.904;2024-01-06T15:21:23;101580.31;;;-1.25;100.00
11856;BME280;5987;53.140;8.904;2024-01-06T15:24:28;101576.09;;;-1.21;100.00
11856;BME280;5987;53.140;8.904;2024-01-06T15:27:33;101596.47;;;-1.32;100.00
11856;BME280;5987;53.140;8.904;2024-01-06T15:30:39;101596.50;;;-1.30;100.00
11856;BME280;5987;53.140;8.904;2024-01-06T15:33:43;101599.25;;;-1.23;100.00
11856;BME280;5987;53.140;8.904;2024-01-06T15:36:50;101603.25;;;-1.34;100.00
11856;BME280;5987;53.140;8.904;2024-01-06T15:39:54;101610.16;;;-1.33;100.00
11856;BME280;5987;53.140;8.904;2024-01-06T15:42:58;101612.75;;;-1.33;100.00
11856;BME280;5987;53.140;8.904;2024-01-06T15:46:04;101615.28;;;-1.34;100.00
11856;BME280;5987;53.140;8.904;2024-01-06T15:49:08;101617.09;;;-1.30;100.00
11856;BME280;5987;53.140;8.904;2024-01-06T15:52:12;101619.72;;;-1.29;100.00
11856;BME280;5987;53.140;8.904;2024-01-06T15:55:15;101627.59;;;-1.23;100.00
11856;BME280;5987;53.140;8.904;2024-01-06T15:58:19;101630.16;;;-1.23;100.00
11856;BME280;5987;53.140;8.904;2024-01-06T16:01:25;101630.84;;;-1.30;100.00
11856;BME280;5987;53.140;8.904;2024-01-06T16:04:29;101631.84;;;-1.25;100.00
11856;BME280;5987;53.140;8.904;2024-01-06T16:07:33;101645.56;;;-1.26;100.00